Jacob Lake, Arizona
Current Conditions -  °F | °C
As of 9:55 AM on Thursday 27 Nov 2014 (Local Time) from KAZC Reporting Station
Clear Clear  
Wind Chill: 50°   Ceiling: Unl
Heat Index: 50°   Visibility: 10mi
Dew Point: 19°   Wind: 7mph
Humidity: 30%   Direction: 140°SE
Pressure: 30.44"   Gusts: NA
Location:  36.9484°N, 112.529°W
Report Text: KAZC 271655Z AUTO 14006KT 10SM CLR 10/M07 A3044 RMK AO2 T01001070
Loading
Personal Weather Stations






























Interactive Weather Map New forecast layout! Learn more

10-Day Weather Forecast

Advertisements
Track Severe Weather on mobile